sensor_id;sensor_type;location;lat;lon;timestamp;P1;durP1;ratioP1;P2;durP2;ratioP2
46318;SDS011;32042;50.916;2.926;2023-10-13T00:01:18;3.75;;;2.63;;
46318;SDS011;32042;50.916;2.926;2023-10-13T00:03:47;7.70;;;3.55;;
46318;SDS011;32042;50.916;2.926;2023-10-13T00:06:13;6.25;;;3.65;;
46318;SDS011;32042;50.916;2.926;2023-10-13T00:08:40;5.10;;;3.47;;
46318;SDS011;32042;50.916;2.926;2023-10-13T00:11:11;10.02;;;3.40;;
46318;SDS011;32042;50.916;2.926;2023-10-13T00:13:37;4.88;;;3.00;;
46318;SDS011;32042;50.916;2.926;2023-10-13T00:16:15;7.05;;;3.20;;
46318;SDS011;32042;50.916;2.926;2023-10-13T00:18:47;7.93;;;3.05;;
46318;SDS011;32042;50.916;2.926;2023-10-13T00:21:15;6.68;;;3.17;;
46318;SDS011;32042;50.916;2.926;2023-10-13T00:23:45;7.88;;;2.60;;
46318;SDS011;32042;50.916;2.926;2023-10-13T00:26:20;5.45;;;2.85;;
46318;SDS011;32042;50.916;2.926;2023-10-13T00:28:52;6.60;;;2.72;;
46318;SDS011;32042;50.916;2.926;2023-10-13T00:31:45;7.40;;;2.75;;
46318;SDS011;32042;50.916;2.926;2023-10-13T00:34:13;13.93;;;3.10;;
46318;SDS011;32042;50.916;2.926;2023-10-13T00:36:57;3.75;;;2.50;;
46318;SDS011;32042;50.916;2.926;2023-10-13T00:39:56;6.75;;;2.47;;
46318;SDS011;32042;50.916;2.926;2023-10-13T00:42:23;9.50;;;2.53;;
46318;SDS011;32042;50.916;2.926;2023-10-13T00:44:59;9.68;;;3.25;;
46318;SDS011;32042;50.916;2.926;2023-10-13T00:47:25;8.40;;;2.85;;
46318;SDS011;32042;50.916;2.926;2023-10-13T00:50:14;8.60;;;2.92;;
46318;SDS011;32042;50.916;2.926;2023-10-13T00:52:42;6.38;;;3.03;;
46318;SDS011;32042;50.916;2.926;2023-10-13T00:55:11;6.47;;;2.33;;
46318;SDS011;32042;50.916;2.926;2023-10-13T00:57:39;4.30;;;2.20;;
46318;SDS011;32042;50.916;2.926;2023-10-13T01:00:06;9.13;;;2.70;;
46318;SDS011;32042;50.916;2.926;2023-10-13T01:02:43;8.73;;;3.00;;
46318;SDS011;32042;50.916;2.926;2023-10-13T01:05:10;3.88;;;2.88;;
46318;SDS011;32042;50.916;2.926;2023-10-13T01:07:45;6.35;;;2.65;;
46318;SDS011;32042;50.916;2.926;2023-10-13T01:10:15;6.15;;;2.95;;
46318;SDS011;32042;50.916;2.926;2023-10-13T01:12:42;6.32;;;2.47;;
46318;SDS011;32042;50.916;2.926;2023-10-13T01:15:08;5.32;;;2.50;;
46318;SDS011;32042;50.916;2.926;2023-10-13T01:17:36;5.50;;;2.60;;
46318;SDS011;32042;50.916;2.926;2023-10-13T01:20:03;4.75;;;2.72;;
46318;SDS011;32042;50.916;2.926;2023-10-13T01:22:30;9.80;;;3.00;;
46318;SDS011;32042;50.916;2.926;2023-10-13T01:24:57;6.15;;;2.67;;
46318;SDS011;32042;50.916;2.926;2023-10-13T01:27:38;3.25;;;2.40;;
46318;SDS011;32042;50.916;2.926;2023-10-13T01:30:04;3.65;;;2.35;;
46318;SDS011;32042;50.916;2.926;2023-10-13T01:32:35;6.22;;;2.92;;
46318;SDS011;32042;50.916;2.926;2023-10-13T01:35:10;6.00;;;2.90;;
46318;SDS011;32042;50.916;2.926;2023-10-13T01:37:36;5.82;;;3.30;;
46318;SDS011;32042;50.916;2.926;2023-10-13T01:40:02;6.13;;;3.35;;
46318;SDS011;32042;50.916;2.926;2023-10-13T01:42:29;5.22;;;3.15;;
46318;SDS011;32042;50.916;2.926;2023-10-13T01:44:55;8.00;;;3.85;;
46318;SDS011;32042;50.916;2.926;2023-10-13T01:47:30;8.60;;;3.53;;
46318;SDS011;32042;50.916;2.926;2023-10-13T01:49:58;8.27;;;3.85;;
46318;SDS011;32042;50.916;2.926;2023-10-13T01:52:32;5.45;;;3.78;;
46318;SDS011;32042;50.916;2.926;2023-10-13T01:54:58;9.98;;;4.75;;
46318;SDS011;32042;50.916;2.926;2023-10-13T01:57:26;10.40;;;4.95;;
46318;SDS011;32042;50.916;2.926;2023-10-13T01:59:53;10.40;;;6.57;;
46318;SDS011;32042;50.916;2.926;2023-10-13T02:02:28;9.40;;;7.07;;
46318;SDS011;32042;50.916;2.926;2023-10-13T02:04:54;10.85;;;7.15;;
46318;SDS011;32042;50.916;2.926;2023-10-13T02:07:27;8.75;;;7.90;;
46318;SDS011;32042;50.916;2.926;2023-10-13T02:09:56;12.25;;;8.27;;
46318;SDS011;32042;50.916;2.926;2023-10-13T02:12:23;9.65;;;8.63;;
46318;SDS011;32042;50.916;2.926;2023-10-13T02:14:54;9.70;;;8.73;;
46318;SDS011;32042;50.916;2.926;2023-10-13T02:17:20;11.82;;;8.88;;
46318;SDS011;32042;50.916;2.926;2023-10-13T02:19:46;11.18;;;9.15;;
46318;SDS011;32042;50.916;2.926;2023-10-13T02:22:13;10.82;;;8.90;;
46318;SDS011;32042;50.916;2.926;2023-10-13T02:24:57;12.13;;;8.73;;
46318;SDS011;32042;50.916;2.926;2023-10-13T02:27:27;12.82;;;9.70;;
46318;SDS011;32042;50.916;2.926;2023-10-13T02:29:53;13.63;;;10.05;;
46318;SDS011;32042;50.916;2.926;2023-10-13T02:32:26;10.88;;;9.75;;
46318;SDS011;32042;50.916;2.926;2023-10-13T02:34:55;12.52;;;9.00;;
46318;SDS011;32042;50.916;2.926;2023-10-13T02:37:31;12.85;;;9.73;;
46318;SDS011;32042;50.916;2.926;2023-10-13T02:39:58;13.57;;;10.38;;
46318;SDS011;32042;50.916;2.926;2023-10-13T02:42:25;14.70;;;9.55;;
46318;SDS011;32042;50.916;2.926;2023-10-13T02:44:52;10.80;;;8.60;;
46318;SDS011;32042;50.916;2.926;2023-10-13T02:47:23;11.13;;;9.07;;
46318;SDS011;32042;50.916;2.926;2023-10-13T02:49:52;11.13;;;8.85;;
46318;SDS011;32042;50.916;2.926;2023-10-13T02:52:19;13.68;;;8.23;;
46318;SDS011;32042;50.916;2.926;2023-10-13T02:54:45;8.85;;;6.95;;
46318;SDS011;32042;50.916;2.926;2023-10-13T02:57:17;9.93;;;7.53;;
46318;SDS011;32042;50.916;2.926;2023-10-13T02:59:44;11.18;;;7.53;;
46318;SDS011;32042;50.916;2.926;2023-10-13T03:02:13;10.13;;;6.80;;
46318;SDS011;32042;50.916;2.926;2023-10-13T03:04:46;11.07;;;6.63;;
46318;SDS011;32042;50.916;2.926;2023-10-13T03:07:12;11.45;;;6.47;;
46318;SDS011;32042;50.916;2.926;2023-10-13T03:09:48;9.55;;;6.75;;
46318;SDS011;32042;50.916;2.926;2023-10-13T03:12:17;8.25;;;6.47;;
46318;SDS011;32042;50.916;2.926;2023-10-13T03:14:43;11.93;;;6.32;;
46318;SDS011;32042;50.916;2.926;2023-10-13T03:17:13;6.55;;;5.60;;
46318;SDS011;32042;50.916;2.926;2023-10-13T03:19:45;10.65;;;6.10;;
46318;SDS011;32042;50.916;2.926;2023-10-13T03:22:15;14.32;;;5.90;;
46318;SDS011;32042;50.916;2.926;2023-10-13T03:24:44;6.03;;;4.47;;
46318;SDS011;32042;50.916;2.926;2023-10-13T03:27:12;5.57;;;4.78;;
46318;SDS011;32042;50.916;2.926;2023-10-13T03:29:41;6.25;;;5.30;;
46318;SDS011;32042;50.916;2.926;2023-10-13T03:32:12;8.55;;;5.30;;
46318;SDS011;32042;50.916;2.926;2023-10-13T03:34:40;7.28;;;5.63;;
46318;SDS011;32042;50.916;2.926;2023-10-13T03:37:14;9.02;;;5.57;;
46318;SDS011;32042;50.916;2.926;2023-10-13T03:39:59;7.15;;;5.53;;
46318;SDS011;32042;50.916;2.926;2023-10-13T03:42:25;8.05;;;6.80;;
46318;SDS011;32042;50.916;2.926;2023-10-13T03:44:51;11.13;;;7.30;;
46318;SDS011;32042;50.916;2.926;2023-10-13T03:47:20;11.30;;;7.13;;
46318;SDS011;32042;50.916;2.926;2023-10-13T03:49:54;10.80;;;6.53;;
46318;SDS011;32042;50.916;2.926;2023-10-13T03:52:39;11.20;;;6.22;;
46318;SDS011;32042;50.916;2.926;2023-10-13T03:55:05;12.82;;;6.43;;
46318;SDS011;32042;50.916;2.926;2023-10-13T03:57:32;11.95;;;6.15;;
46318;SDS011;32042;50.916;2.926;2023-10-13T03:59:59;13.07;;;5.75;;
46318;SDS011;32042;50.916;2.926;2023-10-13T04:02:33;8.75;;;5.30;;
46318;SDS011;32042;50.916;2.926;2023-10-13T04:05:01;9.75;;;5.90;;
46318;SDS011;32042;50.916;2.926;2023-10-13T04:07:34;11.45;;;5.70;;
46318;SDS011;32042;50.916;2.926;2023-10-13T04:10:00;9.95;;;5.53;;
46318;SDS011;32042;50.916;2.926;2023-10-13T04:12:55;11.60;;;5.72;;
46318;SDS011;32042;50.916;2.926;2023-10-13T04:15:42;8.80;;;6.07;;
46318;SDS011;32042;50.916;2.926;2023-10-13T04:18:28;11.63;;;5.97;;
46318;SDS011;32042;50.916;2.926;2023-10-13T04:21:11;11.43;;;6.30;;
46318;SDS011;32042;50.916;2.926;2023-10-13T04:24:01;10.65;;;5.38;;
46318;SDS011;32042;50.916;2.926;2023-10-13T04:26:34;16.23;;;5.85;;
46318;SDS011;32042;50.916;2.926;2023-10-13T04:29:23;15.20;;;5.63;;
46318;SDS011;32042;50.916;2.926;2023-10-13T04:32:08;13.05;;;5.78;;
46318;SDS011;32042;50.916;2.926;2023-10-13T04:34:38;11.20;;;6.00;;
46318;SDS011;32042;50.916;2.926;2023-10-13T04:37:10;14.02;;;6.28;;
46318;SDS011;32042;50.916;2.926;2023-10-13T04:39:53;9.20;;;5.20;;
46318;SDS011;32042;50.916;2.926;2023-10-13T04:42:24;12.45;;;5.95;;
46318;SDS011;32042;50.916;2.926;2023-10-13T04:45:10;13.27;;;7.05;;
46318;SDS011;32042;50.916;2.926;2023-10-13T04:47:54;18.20;;;6.40;;
46318;SDS011;32042;50.916;2.926;2023-10-13T04:50:43;9.77;;;5.30;;
46318;SDS011;32042;50.916;2.926;2023-10-13T04:53:15;11.10;;;6.25;;
46318;SDS011;32042;50.916;2.926;2023-10-13T04:56:20;10.20;;;5.55;;
46318;SDS011;32042;50.916;2.926;2023-10-13T04:59:09;10.32;;;5.97;;
46318;SDS011;32042;50.916;2.926;2023-10-13T05:02:01;15.02;;;6.07;;
46318;SDS011;32042;50.916;2.926;2023-10-13T05:04:45;14.45;;;5.95;;
46318;SDS011;32042;50.916;2.926;2023-10-13T05:07:30;10.02;;;6.40;;
46318;SDS011;32042;50.916;2.926;2023-10-13T05:10:15;14.05;;;6.22;;
46318;SDS011;32042;50.916;2.926;2023-10-13T05:13:00;13.90;;;5.90;;
46318;SDS011;32042;50.916;2.926;2023-10-13T05:15:46;11.95;;;6.15;;
46318;SDS011;32042;50.916;2.926;2023-10-13T05:18:31;12.90;;;6.22;;
46318;SDS011;32042;50.916;2.926;2023-10-13T05:21:16;14.80;;;5.75;;
46318;SDS011;32042;50.916;2.926;2023-10-13T05:24:01;12.52;;;6.20;;
46318;SDS011;32042;50.916;2.926;2023-10-13T05:26:45;12.95;;;5.85;;
46318;SDS011;32042;50.916;2.926;2023-10-13T05:29:30;14.02;;;6.38;;
46318;SDS011;32042;50.916;2.926;2023-10-13T05:32:15;15.90;;;6.65;;
46318;SDS011;32042;50.916;2.926;2023-10-13T05:34:59;10.60;;;5.45;;
46318;SDS011;32042;50.916;2.926;2023-10-13T05:37:44;11.23;;;6.35;;
46318;SDS011;32042;50.916;2.926;2023-10-13T05:40:28;7.47;;;5.97;;
46318;SDS011;32042;50.916;2.926;2023-10-13T05:43:13;13.32;;;6.10;;
46318;SDS011;32042;50.916;2.926;2023-10-13T05:46:02;12.57;;;5.45;;
46318;SDS011;32042;50.916;2.926;2023-10-13T05:48:47;11.65;;;5.43;;
46318;SDS011;32042;50.916;2.926;2023-10-13T05:51:25;9.13;;;5.50;;
46318;SDS011;32042;50.916;2.926;2023-10-13T05:54:18;10.95;;;4.97;;
46318;SDS011;32042;50.916;2.926;2023-10-13T05:57:02;12.00;;;5.43;;
46318;SDS011;32042;50.916;2.926;2023-10-13T05:59:47;10.18;;;5.18;;
46318;SDS011;32042;50.916;2.926;2023-10-13T06:02:32;14.63;;;5.65;;
46318;SDS011;32042;50.916;2.926;2023-10-13T06:05:16;13.50;;;5.10;;
46318;SDS011;32042;50.916;2.926;2023-10-13T06:08:01;13.07;;;4.88;;
46318;SDS011;32042;50.916;2.926;2023-10-13T06:10:48;11.35;;;5.65;;
46318;SDS011;32042;50.916;2.926;2023-10-13T06:13:33;10.60;;;4.85;;
46318;SDS011;32042;50.916;2.926;2023-10-13T06:16:18;11.02;;;5.00;;
46318;SDS011;32042;50.916;2.926;2023-10-13T06:19:02;11.63;;;5.05;;
46318;SDS011;32042;50.916;2.926;2023-10-13T06:21:47;9.02;;;5.28;;
46318;SDS011;32042;50.916;2.926;2023-10-13T06:24:32;14.38;;;5.32;;
46318;SDS011;32042;50.916;2.926;2023-10-13T06:27:16;14.10;;;5.28;;
46318;SDS011;32042;50.916;2.926;2023-10-13T06:30:01;11.13;;;4.80;;
46318;SDS011;32042;50.916;2.926;2023-10-13T06:32:29;12.10;;;4.70;;
46318;SDS011;32042;50.916;2.926;2023-10-13T06:34:56;15.35;;;5.47;;
46318;SDS011;32042;50.916;2.926;2023-10-13T06:37:44;12.95;;;4.63;;
46318;SDS011;32042;50.916;2.926;2023-10-13T06:40:11;12.80;;;4.70;;
46318;SDS011;32042;50.916;2.926;2023-10-13T06:42:46;14.63;;;4.70;;
46318;SDS011;32042;50.916;2.926;2023-10-13T06:45:12;9.48;;;4.80;;
46318;SDS011;32042;50.916;2.926;2023-10-13T06:47:41;12.02;;;4.55;;
46318;SDS011;32042;50.916;2.926;2023-10-13T06:50:17;15.10;;;4.50;;
46318;SDS011;32042;50.916;2.926;2023-10-13T06:52:49;13.13;;;4.85;;
46318;SDS011;32042;50.916;2.926;2023-10-13T06:55:16;12.82;;;4.63;;
46318;SDS011;32042;50.916;2.926;2023-10-13T06:57:48;10.00;;;4.60;;
46318;SDS011;32042;50.916;2.926;2023-10-13T07:00:16;12.52;;;5.38;;
46318;SDS011;32042;50.916;2.926;2023-10-13T07:02:53;12.00;;;4.75;;
46318;SDS011;32042;50.916;2.926;2023-10-13T07:05:19;8.82;;;4.80;;
46318;SDS011;32042;50.916;2.926;2023-10-13T07:07:45;13.23;;;4.90;;
46318;SDS011;32042;50.916;2.926;2023-10-13T07:10:13;13.90;;;4.95;;
46318;SDS011;32042;50.916;2.926;2023-10-13T07:12:39;9.77;;;4.00;;
46318;SDS011;32042;50.916;2.926;2023-10-13T07:15:09;10.15;;;4.78;;
46318;SDS011;32042;50.916;2.926;2023-10-13T07:17:41;11.77;;;4.38;;
46318;SDS011;32042;50.916;2.926;2023-10-13T07:20:09;17.75;;;4.88;;
46318;SDS011;32042;50.916;2.926;2023-10-13T07:22:57;13.55;;;4.60;;
46318;SDS011;32042;50.916;2.926;2023-10-13T07:25:31;10.18;;;4.65;;
46318;SDS011;32042;50.916;2.926;2023-10-13T07:28:06;12.15;;;3.85;;
46318;SDS011;32042;50.916;2.926;2023-10-13T07:30:34;11.35;;;4.45;;
46318;SDS011;32042;50.916;2.926;2023-10-13T07:33:18;9.00;;;4.60;;
46318;SDS011;32042;50.916;2.926;2023-10-13T07:35:48;15.23;;;4.68;;
46318;SDS011;32042;50.916;2.926;2023-10-13T07:38:16;12.88;;;4.75;;
46318;SDS011;32042;50.916;2.926;2023-10-13T07:40:43;12.07;;;4.75;;
46318;SDS011;32042;50.916;2.926;2023-10-13T07:43:18;10.77;;;4.82;;
46318;SDS011;32042;50.916;2.926;2023-10-13T07:45:47;10.13;;;4.50;;
46318;SDS011;32042;50.916;2.926;2023-10-13T07:48:17;12.93;;;4.20;;
46318;SDS011;32042;50.916;2.926;2023-10-13T07:50:47;10.45;;;4.15;;
46318;SDS011;32042;50.916;2.926;2023-10-13T07:53:14;15.02;;;4.97;;
46318;SDS011;32042;50.916;2.926;2023-10-13T07:55:50;12.60;;;4.50;;
46318;SDS011;32042;50.916;2.926;2023-10-13T07:58:23;17.02;;;5.18;;
46318;SDS011;32042;50.916;2.926;2023-10-13T08:00:50;10.43;;;4.65;;
46318;SDS011;32042;50.916;2.926;2023-10-13T08:03:35;12.00;;;5.05;;
46318;SDS011;32042;50.916;2.926;2023-10-13T08:06:16;8.18;;;4.82;;
46318;SDS011;32042;50.916;2.926;2023-10-13T08:08:42;14.45;;;4.75;;
46318;SDS011;32042;50.916;2.926;2023-10-13T08:11:14;10.95;;;4.47;;
46318;SDS011;32042;50.916;2.926;2023-10-13T08:13:55;14.25;;;4.65;;
46318;SDS011;32042;50.916;2.926;2023-10-13T08:16:25;7.70;;;4.57;;
46318;SDS011;32042;50.916;2.926;2023-10-13T08:21:42;12.30;;;5.22;;
46318;SDS011;32042;50.916;2.926;2023-10-13T08:24:22;11.00;;;4.55;;
46318;SDS011;32042;50.916;2.926;2023-10-13T08:27:04;9.63;;;4.82;;
46318;SDS011;32042;50.916;2.926;2023-10-13T08:29:40;16.20;;;5.15;;
46318;SDS011;32042;50.916;2.926;2023-10-13T08:32:25;15.38;;;4.90;;
46318;SDS011;32042;50.916;2.926;2023-10-13T08:34:51;9.90;;;5.30;;
46318;SDS011;32042;50.916;2.926;2023-10-13T08:37:17;10.75;;;5.15;;
46318;SDS011;32042;50.916;2.926;2023-10-13T08:39:50;13.43;;;5.88;;
46318;SDS011;32042;50.916;2.926;2023-10-13T08:45:05;12.85;;;5.40;;
46318;SDS011;32042;50.916;2.926;2023-10-13T08:47:51;15.38;;;5.38;;
46318;SDS011;32042;50.916;2.926;2023-10-13T08:56:02;13.65;;;6.38;;
46318;SDS011;32042;50.916;2.926;2023-10-13T08:58:31;12.30;;;5.15;;
46318;SDS011;32042;50.916;2.926;2023-10-13T09:01:17;7.70;;;4.72;;
46318;SDS011;32042;50.916;2.926;2023-10-13T09:04:02;8.57;;;4.85;;
46318;SDS011;32042;50.916;2.926;2023-10-13T09:09:24;12.07;;;5.35;;
46318;SDS011;32042;50.916;2.926;2023-10-13T09:12:22;13.27;;;5.35;;
46318;SDS011;32042;50.916;2.926;2023-10-13T09:15:08;9.13;;;5.40;;
46318;SDS011;32042;50.916;2.926;2023-10-13T09:17:44;11.27;;;5.78;;
46318;SDS011;32042;50.916;2.926;2023-10-13T09:20:17;9.75;;;5.03;;
46318;SDS011;32042;50.916;2.926;2023-10-13T09:23:08;11.63;;;5.20;;
46318;SDS011;32042;50.916;2.926;2023-10-13T09:25:35;10.95;;;5.72;;
46318;SDS011;32042;50.916;2.926;2023-10-13T09:30:42;12.10;;;5.32;;
46318;SDS011;32042;50.916;2.926;2023-10-13T09:33:08;10.68;;;4.82;;
46318;SDS011;32042;50.916;2.926;2023-10-13T09:35:34;10.73;;;5.70;;
46318;SDS011;32042;50.916;2.926;2023-10-13T09:38:02;10.90;;;5.63;;
46318;SDS011;32042;50.916;2.926;2023-10-13T09:40:29;8.13;;;5.22;;
46318;SDS011;32042;50.916;2.926;2023-10-13T09:42:59;9.82;;;5.00;;
46318;SDS011;32042;50.916;2.926;2023-10-13T09:45:31;13.65;;;4.88;;
46318;SDS011;32042;50.916;2.926;2023-10-13T09:48:31;15.88;;;5.15;;
46318;SDS011;32042;50.916;2.926;2023-10-13T09:50:59;9.18;;;4.95;;
46318;SDS011;32042;50.916;2.926;2023-10-13T09:53:25;11.52;;;5.63;;
46318;SDS011;32042;50.916;2.926;2023-10-13T09:56:35;15.73;;;5.15;;
46318;SDS011;32042;50.916;2.926;2023-10-13T09:59:04;14.20;;;5.82;;
46318;SDS011;32042;50.916;2.926;2023-10-13T10:01:33;11.13;;;4.85;;
46318;SDS011;32042;50.916;2.926;2023-10-13T10:04:13;12.20;;;5.57;;
46318;SDS011;32042;50.916;2.926;2023-10-13T10:06:54;9.23;;;4.80;;
46318;SDS011;32042;50.916;2.926;2023-10-13T10:09:27;8.00;;;5.00;;
46318;SDS011;32042;50.916;2.926;2023-10-13T10:17:05;10.10;;;5.53;;
46318;SDS011;32042;50.916;2.926;2023-10-13T10:19:47;16.27;;;6.38;;
46318;SDS011;32042;50.916;2.926;2023-10-13T10:22:13;11.48;;;4.85;;
46318;SDS011;32042;50.916;2.926;2023-10-13T10:24:42;12.73;;;5.63;;
46318;SDS011;32042;50.916;2.926;2023-10-13T10:27:09;11.20;;;6.30;;
46318;SDS011;32042;50.916;2.926;2023-10-13T10:29:40;17.00;;;5.65;;
46318;SDS011;32042;50.916;2.926;2023-10-13T10:32:13;14.20;;;5.40;;
46318;SDS011;32042;50.916;2.926;2023-10-13T10:34:39;14.32;;;5.50;;
46318;SDS011;32042;50.916;2.926;2023-10-13T10:37:07;12.60;;;6.22;;
46318;SDS011;32042;50.916;2.926;2023-10-13T10:39:37;13.82;;;5.57;;
46318;SDS011;32042;50.916;2.926;2023-10-13T10:42:14;15.32;;;5.40;;
46318;SDS011;32042;50.916;2.926;2023-10-13T10:44:42;13.30;;;6.38;;
46318;SDS011;32042;50.916;2.926;2023-10-13T10:47:12;14.90;;;5.82;;
46318;SDS011;32042;50.916;2.926;2023-10-13T10:49:55;15.60;;;5.95;;
46318;SDS011;32042;50.916;2.926;2023-10-13T10:52:21;18.75;;;6.10;;
46318;SDS011;32042;50.916;2.926;2023-10-13T10:54:57;12.68;;;6.10;;
46318;SDS011;32042;50.916;2.926;2023-10-13T10:57:23;12.65;;;6.85;;
46318;SDS011;32042;50.916;2.926;2023-10-13T10:59:54;13.13;;;5.85;;
46318;SDS011;32042;50.916;2.926;2023-10-13T11:02:40;14.93;;;6.43;;
46318;SDS011;32042;50.916;2.926;2023-10-13T11:05:06;13.90;;;5.80;;
46318;SDS011;32042;50.916;2.926;2023-10-13T11:07:35;13.52;;;5.95;;
46318;SDS011;32042;50.916;2.926;2023-10-13T11:10:10;15.85;;;6.03;;
46318;SDS011;32042;50.916;2.926;2023-10-13T11:12:57;12.48;;;5.72;;
46318;SDS011;32042;50.916;2.926;2023-10-13T11:15:46;14.10;;;5.57;;
46318;SDS011;32042;50.916;2.926;2023-10-13T11:18:13;15.18;;;5.60;;
46318;SDS011;32042;50.916;2.926;2023-10-13T11:20:49;18.50;;;6.00;;
46318;SDS011;32042;50.916;2.926;2023-10-13T11:23:19;13.48;;;5.63;;
46318;SDS011;32042;50.916;2.926;2023-10-13T11:25:59;12.07;;;5.45;;
46318;SDS011;32042;50.916;2.926;2023-10-13T11:28:26;13.57;;;6.05;;
46318;SDS011;32042;50.916;2.926;2023-10-13T11:30:52;14.15;;;5.75;;
46318;SDS011;32042;50.916;2.926;2023-10-13T11:33:23;12.45;;;4.50;;
46318;SDS011;32042;50.916;2.926;2023-10-13T11:35:51;12.00;;;5.25;;
46318;SDS011;32042;50.916;2.926;2023-10-13T11:41:03;12.13;;;4.32;;
46318;SDS011;32042;50.916;2.926;2023-10-13T11:43:29;9.23;;;4.90;;
46318;SDS011;32042;50.916;2.926;2023-10-13T11:46:00;10.40;;;3.20;;
46318;SDS011;32042;50.916;2.926;2023-10-13T11:48:38;13.02;;;3.70;;
46318;SDS011;32042;50.916;2.926;2023-10-13T11:51:07;8.73;;;4.63;;
46318;SDS011;32042;50.916;2.926;2023-10-13T11:53:33;6.43;;;3.50;;
46318;SDS011;32042;50.916;2.926;2023-10-13T11:56:00;8.48;;;3.17;;
46318;SDS011;32042;50.916;2.926;2023-10-13T11:58:26;12.95;;;3.20;;
46318;SDS011;32042;50.916;2.926;2023-10-13T12:00:55;8.15;;;3.28;;
46318;SDS011;32042;50.916;2.926;2023-10-13T12:03:39;6.05;;;2.95;;
46318;SDS011;32042;50.916;2.926;2023-10-13T12:06:24;12.70;;;3.28;;
46318;SDS011;32042;50.916;2.926;2023-10-13T12:09:00;10.18;;;4.00;;
46318;SDS011;32042;50.916;2.926;2023-10-13T12:11:41;6.47;;;3.45;;
46318;SDS011;32042;50.916;2.926;2023-10-13T12:14:08;10.10;;;3.15;;
46318;SDS011;32042;50.916;2.926;2023-10-13T12:16:48;13.70;;;3.75;;
46318;SDS011;32042;50.916;2.926;2023-10-13T12:19:16;9.88;;;3.60;;
46318;SDS011;32042;50.916;2.926;2023-10-13T12:21:43;8.70;;;3.33;;
46318;SDS011;32042;50.916;2.926;2023-10-13T12:24:09;8.45;;;3.95;;
46318;SDS011;32042;50.916;2.926;2023-10-13T12:26:56;7.95;;;4.00;;
46318;SDS011;32042;50.916;2.926;2023-10-13T12:29:23;11.07;;;3.70;;
46318;SDS011;32042;50.916;2.926;2023-10-13T12:31:57;10.70;;;4.00;;
46318;SDS011;32042;50.916;2.926;2023-10-13T12:34:37;6.05;;;3.40;;
46318;SDS011;32042;50.916;2.926;2023-10-13T12:37:41;15.88;;;3.95;;
46318;SDS011;32042;50.916;2.926;2023-10-13T12:40:09;7.80;;;3.65;;
46318;SDS011;32042;50.916;2.926;2023-10-13T12:42:54;12.20;;;3.80;;
46318;SDS011;32042;50.916;2.926;2023-10-13T12:45:39;13.35;;;3.50;;
46318;SDS011;32042;50.916;2.926;2023-10-13T12:48:24;12.70;;;4.53;;
46318;SDS011;32042;50.916;2.926;2023-10-13T12:51:08;10.05;;;3.88;;
46318;SDS011;32042;50.916;2.926;2023-10-13T12:56:13;10.85;;;3.45;;
46318;SDS011;32042;50.916;2.926;2023-10-13T12:58:40;11.95;;;4.43;;
46318;SDS011;32042;50.916;2.926;2023-10-13T13:01:07;10.73;;;4.32;;
46318;SDS011;32042;50.916;2.926;2023-10-13T13:03:33;11.10;;;3.80;;
46318;SDS011;32042;50.916;2.926;2023-10-13T13:05:59;11.45;;;4.05;;
46318;SDS011;32042;50.916;2.926;2023-10-13T13:08:32;7.90;;;4.03;;
46318;SDS011;32042;50.916;2.926;2023-10-13T13:11:07;9.75;;;3.92;;
46318;SDS011;32042;50.916;2.926;2023-10-13T13:13:33;12.50;;;3.63;;
46318;SDS011;32042;50.916;2.926;2023-10-13T13:15:59;10.63;;;3.95;;
46318;SDS011;32042;50.916;2.926;2023-10-13T13:18:25;8.35;;;3.75;;
46318;SDS011;32042;50.916;2.926;2023-10-13T13:20:51;13.23;;;4.20;;
46318;SDS011;32042;50.916;2.926;2023-10-13T13:23:18;8.45;;;3.95;;
46318;SDS011;32042;50.916;2.926;2023-10-13T13:25:45;8.02;;;4.05;;
46318;SDS011;32042;50.916;2.926;2023-10-13T13:28:11;9.02;;;3.92;;
46318;SDS011;32042;50.916;2.926;2023-10-13T13:30:37;10.77;;;4.28;;
46318;SDS011;32042;50.916;2.926;2023-10-13T13:33:04;9.23;;;3.47;;
46318;SDS011;32042;50.916;2.926;2023-10-13T13:35:36;10.05;;;3.10;;
46318;SDS011;32042;50.916;2.926;2023-10-13T13:38:02;14.00;;;3.65;;
46318;SDS011;32042;50.916;2.926;2023-10-13T13:40:37;10.07;;;3.80;;
46318;SDS011;32042;50.916;2.926;2023-10-13T13:43:04;10.23;;;4.13;;
46318;SDS011;32042;50.916;2.926;2023-10-13T13:45:31;8.07;;;4.20;;
46318;SDS011;32042;50.916;2.926;2023-10-13T13:47:59;15.50;;;4.07;;
46318;SDS011;32042;50.916;2.926;2023-10-13T13:50:32;11.27;;;4.22;;
46318;SDS011;32042;50.916;2.926;2023-10-13T13:53:04;9.32;;;3.90;;
46318;SDS011;32042;50.916;2.926;2023-10-13T13:55:34;7.90;;;3.55;;
46318;SDS011;32042;50.916;2.926;2023-10-13T13:58:00;8.57;;;4.60;;
46318;SDS011;32042;50.916;2.926;2023-10-13T14:00:29;10.90;;;4.30;;
46318;SDS011;32042;50.916;2.926;2023-10-13T14:03:13;11.45;;;4.13;;
46318;SDS011;32042;50.916;2.926;2023-10-13T14:06:00;11.73;;;4.20;;
46318;SDS011;32042;50.916;2.926;2023-10-13T14:08:28;7.57;;;3.42;;
46318;SDS011;32042;50.916;2.926;2023-10-13T14:10:55;17.42;;;5.43;;
46318;SDS011;32042;50.916;2.926;2023-10-13T14:13:46;11.05;;;3.92;;
46318;SDS011;32042;50.916;2.926;2023-10-13T14:16:20;12.52;;;4.35;;
46318;SDS011;32042;50.916;2.926;2023-10-13T14:18:49;13.90;;;4.57;;
46318;SDS011;32042;50.916;2.926;2023-10-13T14:21:16;8.40;;;3.22;;
46318;SDS011;32042;50.916;2.926;2023-10-13T14:23:44;9.18;;;3.97;;
46318;SDS011;32042;50.916;2.926;2023-10-13T14:26:13;8.32;;;4.18;;
46318;SDS011;32042;50.916;2.926;2023-10-13T14:28:40;11.80;;;4.85;;
46318;SDS011;32042;50.916;2.926;2023-10-13T14:31:25;12.73;;;4.30;;
46318;SDS011;32042;50.916;2.926;2023-10-13T14:33:51;11.50;;;3.92;;
46318;SDS011;32042;50.916;2.926;2023-10-13T14:36:18;14.80;;;4.20;;
46318;SDS011;32042;50.916;2.926;2023-10-13T14:38:47;15.13;;;4.47;;
46318;SDS011;32042;50.916;2.926;2023-10-13T14:41:17;15.25;;;4.57;;
46318;SDS011;32042;50.916;2.926;2023-10-13T14:43:44;10.63;;;4.30;;
46318;SDS011;32042;50.916;2.926;2023-10-13T14:46:14;10.98;;;4.32;;
46318;SDS011;32042;50.916;2.926;2023-10-13T14:48:41;8.52;;;4.55;;
46318;SDS011;32042;50.916;2.926;2023-10-13T14:51:11;9.90;;;4.63;;
46318;SDS011;32042;50.916;2.926;2023-10-13T14:53:45;9.20;;;4.32;;
46318;SDS011;32042;50.916;2.926;2023-10-13T14:56:11;9.98;;;4.63;;
46318;SDS011;32042;50.916;2.926;2023-10-13T14:58:38;15.13;;;5.38;;
46318;SDS011;32042;50.916;2.926;2023-10-13T15:01:14;12.32;;;5.07;;
46318;SDS011;32042;50.916;2.926;2023-10-13T15:03:50;11.00;;;5.20;;
46318;SDS011;32042;50.916;2.926;2023-10-13T15:06:21;10.82;;;4.72;;
46318;SDS011;32042;50.916;2.926;2023-10-13T15:08:50;11.75;;;4.93;;
46318;SDS011;32042;50.916;2.926;2023-10-13T15:11:16;12.68;;;5.00;;
46318;SDS011;32042;50.916;2.926;2023-10-13T15:13:43;11.05;;;5.18;;
46318;SDS011;32042;50.916;2.926;2023-10-13T15:16:23;13.95;;;5.10;;
46318;SDS011;32042;50.916;2.926;2023-10-13T15:18:49;10.63;;;4.53;;
46318;SDS011;32042;50.916;2.926;2023-10-13T15:24:06;10.95;;;4.53;;
46318;SDS011;32042;50.916;2.926;2023-10-13T15:26:42;7.28;;;4.70;;
46318;SDS011;32042;50.916;2.926;2023-10-13T15:29:13;10.75;;;5.07;;
46318;SDS011;32042;50.916;2.926;2023-10-13T15:31:41;11.10;;;4.57;;
46318;SDS011;32042;50.916;2.926;2023-10-13T15:34:13;12.57;;;4.72;;
46318;SDS011;32042;50.916;2.926;2023-10-13T15:36:40;10.73;;;4.53;;
46318;SDS011;32042;50.916;2.926;2023-10-13T15:39:08;13.10;;;5.47;;
46318;SDS011;32042;50.916;2.926;2023-10-13T15:41:35;15.45;;;5.32;;
46318;SDS011;32042;50.916;2.926;2023-10-13T15:44:05;10.15;;;5.18;;
46318;SDS011;32042;50.916;2.926;2023-10-13T15:46:34;11.73;;;4.97;;